Yambol, Bulgaria
Current Conditions -  °F | °C
As of 5:30 AM on Saturday 29 Nov 2014 (Local Time) from LBBG Reporting Station
Broken Clouds Broken Clouds  
Wind Chill: 37°   Ceiling: 1500
Heat Index: 41°   Visibility: 4mi
Dew Point: 39°   Wind: 7mph
Humidity: 93%   Direction: 240°WSW
Pressure: 30.21"   Gusts: NA
Location:  42.48°N, 26.5°E
Report Text: LBBG 290230Z 24003MPS 6000 BKN015 05/04 Q1023 NOSIG
Loading
Personal Weather Stations






























Interactive Weather Map New forecast layout! Learn more

10-Day Weather Forecast

Advertisements
Track Severe Weather on mobile